Temp: 12.4°C   Baro: 1022.5mb
  Wind: 0.9mph   Dir: NE (54°)
  Rain: 0.0mm (0.0mm/hr)
  Solar: 0W/m2  Hum: 85%

Historic data

Bath Spa Weather Station Historical Data
Daily Summary for September 27, 2019 Units:  Both    English   Metric
Daily Weekly Monthly Yearly Custom
  High: Low: Average:
Temperature: 54.7 °F /  12.6 °C 35.8 °F /  2.1 °C 42.7 °F /  5.9 °C
Dew Point: 44.3 °F /  6.8 °C 34.3 °F /  1.3 °C 39 °F /  3.9 °C
Humidity: 96% 66.3% 88%
Wind Speed: 5.3mph /  8.5km/h - 0.6mph /  1km/h
Wind Gust: 10mph /  16.1km/h - -
Wind- - SSW
Pressure: 30.32 in /  1026.6 hPa 30.07 in /  1018.2 hPa -
Precipitation: 0.01 in /  0.25 mm    
Historical Graphs
 
 
Tabular Data for September 27, 2019
Time Temperature Dew Point Pressure Wind Wind Speed Wind Gust Humidity Rainfall Rate (Hourly) solar
00:04 42.6 °F /  5.9 °C 41 °F /  5 °C 30.07in /  1018.2hPa Calm     94% 0.00in /  0mm 0 W/m2
00:09 42.6 °F /  5.9 °C 41 °F /  5 °C 30.07in /  1018.2hPa Calm     94% 0.00in /  0mm 0 W/m2
00:14 42.6 °F /  5.9 °C 41 °F /  5 °C 30.07in /  1018.2hPa Calm     94% 0.00in /  0mm 0 W/m2
00:19 42.6 °F /  5.9 °C 41 °F /  5 °C 30.07in /  1018.2hPa Calm     94% 0.00in /  0mm 0 W/m2
00:24 42.5 °F /  5.8 °C 40.9 °F /  4.9 °C 30.07in /  1018.2hPa Calm     94% 0.00in /  0mm 0 W/m2
00:29 42.5 °F /  5.8 °C 40.9 °F /  4.9 °C 30.07in /  1018.2hPa Calm     94% 0.00in /  0mm 0 W/m2
00:34 42.5 °F /  5.8 °C 40.9 °F /  4.9 °C 30.08in /  1018.5hPa Calm     94% 0.00in /  0mm 0 W/m2
00:39 42.4 °F /  5.8 °C 40.8 °F /  4.9 °C 30.08in /  1018.5hPa Calm     94% 0.00in /  0mm 0 W/m2
00:44 42.4 °F /  5.8 °C 40.8 °F /  4.9 °C 30.09in /  1018.8hPa Calm     94% 0.00in /  0mm 0 W/m2
00:49 42.3 °F /  5.7 °C 40.7 °F /  4.8 °C 30.09in /  1018.8hPa Calm     94% 0.00in /  0mm 0 W/m2
00:54 42.2 °F /  5.7 °C 40.6 °F /  4.8 °C 30.09in /  1018.8hPa Calm     94.2% 0.00in /  0mm 0 W/m2
00:59 42.1 °F /  5.6 °C 40.6 °F /  4.8 °C 30.09in /  1018.8hPa Calm     94.5% 0.00in /  0mm 0 W/m2
01:04 41.9 °F /  5.5 °C 40.3 °F /  4.6 °C 30.10in /  1019.2hPa Calm     94% 0.00in /  0mm 0 W/m2
01:09 41.9 °F /  5.5 °C 40.3 °F /  4.6 °C 30.10in /  1019.2hPa Calm     94% 0.00in /  0mm 0 W/m2
01:14 41.8 °F /  5.4 °C 40.2 °F /  4.6 °C 30.10in /  1019.2hPa Calm     94% 0.00in /  0mm 0 W/m2
01:19 41.7 °F /  5.4 °C 40.5 °F /  4.7 °C 30.11in /  1019.5hPa Calm     94.9% 0.00in /  0mm 0 W/m2
01:24 41.6 °F /  5.3 °C 40.4 °F /  4.7 °C 30.11in /  1019.5hPa Calm     95% 0.00in /  0mm 0 W/m2
01:29 41.4 °F /  5.2 °C 40.1 °F /  4.5 °C 30.11in /  1019.5hPa Calm     94.8% 0.00in /  0mm 0 W/m2
01:34 41.3 °F /  5.2 °C 39.6 °F /  4.2 °C 30.11in /  1019.5hPa Calm     94% 0.00in /  0mm 0 W/m2
01:39 41.2 °F /  5.1 °C 39.7 °F /  4.3 °C 30.11in /  1019.5hPa Calm     94.2% 0.00in /  0mm 0 W/m2
01:44 41 °F /  5 °C 39.7 °F /  4.3 °C 30.11in /  1019.5hPa Calm     95% 0.00in /  0mm 0 W/m2
01:49 40.8 °F /  4.9 °C 39.6 °F /  4.2 °C 30.11in /  1019.5hPa Calm     95% 0.00in /  0mm 0 W/m2
01:54 40.6 °F /  4.8 °C 39.1 °F /  3.9 °C 30.11in /  1019.5hPa Calm     94.5% 0.00in /  0mm 0 W/m2
01:59 40.4 °F /  4.7 °C 39.1 °F /  3.9 °C 30.11in /  1019.5hPa Calm     95% 0.00in /  0mm 0 W/m2
01:04 40.3 °F /  4.6 °C 39 °F /  3.9 °C 30.12in /  1019.9hPa Calm     95% 0.00in /  0mm 0 W/m2
01:09 40.2 °F /  4.6 °C 38.6 °F /  3.7 °C 30.12in /  1019.9hPa Calm     94.2% 0.00in /  0mm 0 W/m2
01:14 40 °F /  4.4 °C 38.8 °F /  3.8 °C 30.13in /  1020.2hPa Calm     95% 0.00in /  0mm 0 W/m2
01:19 39.8 °F /  4.3 °C 38.6 °F /  3.7 °C 30.13in /  1020.2hPa Calm     95% 0.00in /  0mm 0 W/m2
01:24 39.7 °F /  4.3 °C 38.5 °F /  3.6 °C 30.13in /  1020.2hPa Calm     95% 0.00in /  0mm 0 W/m2
01:29 39.7 °F /  4.3 °C 38.5 °F /  3.6 °C 30.13in /  1020.2hPa Calm     95% 0.00in /  0mm 0 W/m2
01:34 39.7 °F /  4.3 °C 38.4 °F /  3.6 °C 30.13in /  1020.2hPa Calm     95% 0.00in /  0mm 0 W/m2
01:39 39.6 °F /  4.2 °C 38.3 °F /  3.5 °C 30.13in /  1020.2hPa Calm     95% 0.00in /  0mm 0 W/m2
01:44 39.6 °F /  4.2 °C 38.3 °F /  3.5 °C 30.13in /  1020.2hPa Calm     95% 0.00in /  0mm 0 W/m2
01:49 39.6 °F /  4.2 °C 38.3 °F /  3.5 °C 30.13in /  1020.2hPa Calm     95% 0.00in /  0mm 0 W/m2
01:54 39.6 °F /  4.2 °C 38.3 °F /  3.5 °C 30.13in /  1020.2hPa Calm     95% 0.00in /  0mm 0 W/m2
01:59 39.5 °F /  4.2 °C 38.2 °F /  3.4 °C 30.13in /  1020.2hPa Calm     95% 0.00in /  0mm 0 W/m2
02:04 39.4 °F /  4.1 °C 38.1 °F /  3.4 °C 30.13in /  1020.2hPa Calm     95% 0.00in /  0mm 0 W/m2
02:09 39.4 °F /  4.1 °C 38.1 °F /  3.4 °C 30.13in /  1020.2hPa Calm     95% 0.00in /  0mm 0 W/m2
02:14 39.3 °F /  4.1 °C 38 °F /  3.3 °C 30.13in /  1020.2hPa Calm     95% 0.00in /  0mm 0 W/m2
02:19 39 °F /  3.9 °C 37.8 °F /  3.2 °C 30.13in /  1020.2hPa Calm     95% 0.00in /  0mm 0 W/m2
02:24 38.7 °F /  3.7 °C 37.5 °F /  3.1 °C 30.13in /  1020.2hPa Calm     95% 0.00in /  0mm 0 W/m2
02:29 38.8 °F /  3.8 °C 37.5 °F /  3.1 °C 30.13in /  1020.2hPa Calm     95% 0.00in /  0mm 0 W/m2
02:34 38.9 °F /  3.8 °C 37.7 °F /  3.2 °C 30.13in /  1020.2hPa Calm     95% 0.00in /  0mm 0 W/m2
02:39 39 °F /  3.9 °C 37.8 °F /  3.2 °C 30.13in /  1020.2hPa Calm     95% 0.00in /  0mm 0 W/m2
02:44 38.8 °F /  3.8 °C 37.6 °F /  3.1 °C 30.13in /  1020.2hPa Calm     95% 0.00in /  0mm 0 W/m2
02:49 38.8 °F /  3.8 °C 37.5 °F /  3.1 °C 30.13in /  1020.2hPa Calm     95% 0.00in /  0mm 0 W/m2
02:54 38.5 °F /  3.6 °C 37.2 °F /  2.9 °C 30.13in /  1020.2hPa Calm     95% 0.00in /  0mm 0 W/m2
02:59 38.4 °F /  3.6 °C 37.1 °F /  2.8 °C 30.13in /  1020.2hPa Calm     95% 0.00in /  0mm 0 W/m2
03:04 38.5 °F /  3.6 °C 37.2 °F /  2.9 °C 30.13in /  1020.2hPa Calm     95% 0.00in /  0mm 0 W/m2
03:09 38.5 °F /  3.6 °C 37.2 °F /  2.9 °C 30.14in /  1020.5hPa Calm     95% 0.00in /  0mm 0 W/m2
03:14 38.4 °F /  3.6 °C 37.1 °F /  2.8 °C 30.14in /  1020.5hPa Calm     95% 0.00in /  0mm 0 W/m2
03:19 38.2 °F /  3.4 °C 37 °F /  2.8 °C 30.14in /  1020.5hPa Calm     95% 0.00in /  0mm 0 W/m2
03:24 38.1 °F /  3.4 °C 36.9 °F /  2.7 °C 30.14in /  1020.5hPa Calm     95% 0.00in /  0mm 0 W/m2
03:29 38.1 °F /  3.4 °C 36.9 °F /  2.7 °C 30.14in /  1020.5hPa Calm     95% 0.00in /  0mm 0 W/m2
03:34 38.3 °F /  3.5 °C 37 °F /  2.8 °C 30.14in /  1020.5hPa WNW 0.6mph /  1km/h 3mph /  4.8km/h 95% 0.01in /  0.25mm 0 W/m2
03:39 38.5 °F /  3.6 °C 37.2 °F /  2.9 °C 30.14in /  1020.5hPa WNW 0.8mph /  1.3km/h 3mph /  4.8km/h 95% 0.01in /  0.25mm 0 W/m2
03:44 38.5 °F /  3.6 °C 37.2 °F /  2.9 °C 30.14in /  1020.5hPa Calm   1mph /  1.6km/h 95% 0.01in /  0.25mm 0 W/m2
03:49 38.3 °F /  3.5 °C 37 °F /  2.8 °C 30.14in /  1020.5hPa Calm     95% 0.01in /  0.25mm 0 W/m2
03:54 38.3 °F /  3.5 °C 37 °F /  2.8 °C 30.15in /  1020.9hPa Calm   1mph /  1.6km/h 95% 0.01in /  0.25mm 0 W/m2
03:59 38.4 °F /  3.6 °C 37.1 °F /  2.8 °C 30.15in /  1020.9hPa Calm     95% 0.01in /  0.25mm 0 W/m2
04:04 38.3 °F /  3.5 °C 37.1 °F /  2.8 °C 30.15in /  1020.9hPa Calm     95% 0.01in /  0.25mm 0 W/m2
04:09 38.1 °F /  3.4 °C 36.9 °F /  2.7 °C 30.15in /  1020.9hPa Calm     95% 0.01in /  0.25mm 0 W/m2
04:14 37.9 °F /  3.3 °C 36.7 °F /  2.6 °C 30.16in /  1021.2hPa Calm     95% 0.01in /  0.25mm 0 W/m2
04:19 37.8 °F /  3.2 °C 36.5 °F /  2.5 °C 30.16in /  1021.2hPa Calm   1mph /  1.6km/h 95% 0.01in /  0.25mm 0 W/m2
04:24 37.8 °F /  3.2 °C 36.5 °F /  2.5 °C 30.16in /  1021.2hPa WNW 0.2mph /  0.3km/h 2mph /  3.2km/h 95% 0.01in /  0.25mm 0 W/m2
04:29 37.7 °F /  3.2 °C 36.4 °F /  2.4 °C 30.16in /  1021.2hPa Calm   2mph /  3.2km/h 95% 0.01in /  0.25mm 0 W/m2
04:34 37.6 °F /  3.1 °C 36.3 °F /  2.4 °C 30.16in /  1021.2hPa Calm     95% 0.01in /  0.25mm 0 W/m2
04:39 37.6 °F /  3.1 °C 36.3 °F /  2.4 °C 30.16in /  1021.2hPa Calm     95% 0.00in /  0mm 0 W/m2
04:44 37.6 °F /  3.1 °C 36.3 °F /  2.4 °C 30.17in /  1021.6hPa Calm   1mph /  1.6km/h 95% 0.00in /  0mm 0 W/m2
04:49 37.6 °F /  3.1 °C 36.3 °F /  2.4 °C 30.17in /  1021.6hPa Calm   1mph /  1.6km/h 95% 0.00in /  0mm 0 W/m2
04:54 37.5 °F /  3.1 °C 36.2 °F /  2.3 °C 30.17in /  1021.6hPa Calm     95% 0.00in /  0mm 0 W/m2
04:59 37.5 °F /  3.1 °C 36.2 °F /  2.3 °C 30.17in /  1021.6hPa Calm     95% 0.00in /  0mm 0 W/m2
05:04 37.4 °F /  3 °C 36.1 °F /  2.3 °C 30.17in /  1021.6hPa Calm     95% 0.00in /  0mm 0 W/m2
05:09 37.2 °F /  2.9 °C 36 °F /  2.2 °C 30.17in /  1021.6hPa Calm     95% 0.00in /  0mm 0 W/m2
05:14 37.2 °F /  2.9 °C 36 °F /  2.2 °C 30.17in /  1021.6hPa Calm     95% 0.00in /  0mm 0 W/m2
05:19 37.1 °F /  2.8 °C 35.9 °F /  2.2 °C 30.18in /  1021.9hPa Calm     95% 0.00in /  0mm 0 W/m2
05:24 37 °F /  2.8 °C 35.8 °F /  2.1 °C 30.18in /  1021.9hPa WNW 0.2mph /  0.3km/h 3mph /  4.8km/h 95% 0.00in /  0mm 0 W/m2
05:29 37 °F /  2.8 °C 35.7 °F /  2.1 °C 30.18in /  1021.9hPa Calm     95% 0.00in /  0mm 0 W/m2
05:34 36.9 °F /  2.7 °C 35.6 °F /  2 °C 30.19in /  1022.2hPa Calm     95% 0.00in /  0mm 0 W/m2
05:39 36.7 °F /  2.6 °C 35.4 °F /  1.9 °C 30.19in /  1022.2hPa Calm   1mph /  1.6km/h 95% 0.00in /  0mm 0 W/m2
05:44 36.7 °F /  2.6 °C 35.4 °F /  1.9 °C 30.19in /  1022.2hPa WNW 0.2mph /  0.3km/h 2mph /  3.2km/h 95% 0.00in /  0mm 0 W/m2
05:49 36.7 °F /  2.6 °C 35.4 °F /  1.9 °C 30.19in /  1022.2hPa Calm   2mph /  3.2km/h 95% 0.00in /  0mm 0 W/m2
05:54 36.7 °F /  2.6 °C 35.4 °F /  1.9 °C 30.19in /  1022.2hPa Calm     95% 0.00in /  0mm 0 W/m2
05:59 36.7 °F /  2.6 °C 35.4 °F /  1.9 °C 30.19in /  1022.2hPa WNW 0.1mph /  0.2km/h 2mph /  3.2km/h 95% 0.00in /  0mm 0 W/m2
06:04 36.6 °F /  2.6 °C 35.3 °F /  1.8 °C 30.19in /  1022.2hPa Calm   1mph /  1.6km/h 95% 0.00in /  0mm 0 W/m2
06:09 36.7 °F /  2.6 °C 35.4 °F /  1.9 °C 30.19in /  1022.2hPa Calm     95% 0.00in /  0mm 0 W/m2
06:14 36.6 °F /  2.6 °C 35.3 °F /  1.8 °C 30.19in /  1022.2hPa Calm     95% 0.00in /  0mm 0 W/m2
06:19 36.3 °F /  2.4 °C 35.1 °F /  1.7 °C 30.20in /  1022.6hPa Calm     95% 0.00in /  0mm 0 W/m2
06:24 36.1 °F /  2.3 °C 34.9 °F /  1.6 °C 30.20in /  1022.6hPa Calm     95% 0.00in /  0mm 0 W/m2
06:29 36 °F /  2.2 °C 34.7 °F /  1.5 °C 30.20in /  1022.6hPa Calm   1mph /  1.6km/h 95% 0.00in /  0mm 0 W/m2
06:34 36 °F /  2.2 °C 34.7 °F /  1.5 °C 30.20in /  1022.6hPa Calm     95% 0.00in /  0mm 0 W/m2
06:39 36 °F /  2.2 °C 34.7 °F /  1.5 °C 30.21in /  1022.9hPa Calm     95% 0.00in /  0mm 0 W/m2
06:44 36 °F /  2.2 °C 34.7 °F /  1.5 °C 30.21in /  1022.9hPa Calm     95% 0.00in /  0mm 0 W/m2
06:49 36 °F /  2.2 °C 34.7 °F /  1.5 °C 30.21in /  1022.9hPa Calm     95% 0.00in /  0mm 0 W/m2
06:54 36 °F /  2.2 °C 34.7 °F /  1.5 °C 30.21in /  1022.9hPa Calm     95% 0.00in /  0mm 0 W/m2
06:59 36 °F /  2.2 °C 34.7 °F /  1.5 °C 30.21in /  1022.9hPa Calm     95% 0.00in /  0mm 5 W/m2
07:04 35.9 °F /  2.2 °C 34.6 °F /  1.4 °C 30.21in /  1022.9hPa WNW 0.2mph /  0.3km/h 2mph /  3.2km/h 95% 0.00in /  0mm 9 W/m2
07:09 35.8 °F /  2.1 °C 34.5 °F /  1.4 °C 30.22in /  1023.2hPa WNW 0.5mph /  0.8km/h 2mph /  3.2km/h 95% 0.00in /  0mm 12 W/m2
07:14 36 °F /  2.2 °C 34.7 °F /  1.5 °C 30.22in /  1023.2hPa WNW 0.3mph /  0.5km/h 2mph /  3.2km/h 95% 0.00in /  0mm 19 W/m2
07:19 36 °F /  2.2 °C 34.8 °F /  1.6 °C 30.22in /  1023.2hPa Calm   1mph /  1.6km/h 95% 0.00in /  0mm 25 W/m2
07:24 36.1 °F /  2.3 °C 34.9 °F /  1.6 °C 30.22in /  1023.2hPa Calm   1mph /  1.6km/h 95% 0.00in /  0mm 28 W/m2
07:29 36.1 °F /  2.3 °C 34.9 °F /  1.6 °C 30.22in /  1023.2hPa Calm     95% 0.00in /  0mm 33 W/m2
07:34 36.1 °F /  2.3 °C 34.9 °F /  1.6 °C 30.23in /  1023.6hPa WNW 0.1mph /  0.2km/h 1mph /  1.6km/h 95% 0.00in /  0mm 39 W/m2
07:39 36.2 °F /  2.3 °C 35 °F /  1.7 °C 30.23in /  1023.6hPa Calm     95% 0.00in /  0mm 44 W/m2
07:44 36.4 °F /  2.4 °C 35.1 °F /  1.7 °C 30.23in /  1023.6hPa Calm     95% 0.00in /  0mm 47 W/m2
07:49 36.5 °F /  2.5 °C 35.2 °F /  1.8 °C 30.24in /  1023.9hPa Calm   1mph /  1.6km/h 95% 0.00in /  0mm 49 W/m2
07:54 36.7 °F /  2.6 °C 35.4 °F /  1.9 °C 30.24in /  1023.9hPa WNW 0.1mph /  0.2km/h 1mph /  1.6km/h 95% 0.00in /  0mm 53 W/m2
07:59 36.7 °F /  2.6 °C 35.4 °F /  1.9 °C 30.24in /  1023.9hPa Calm     95% 0.00in /  0mm 54 W/m2
08:04 36.9 °F /  2.7 °C 35.6 °F /  2 °C 30.24in /  1023.9hPa Calm     95% 0.00in /  0mm 54 W/m2
08:09 37 °F /  2.8 °C 35.8 °F /  2.1 °C 30.24in /  1023.9hPa Calm     95% 0.00in /  0mm 54 W/m2
08:14 37.1 °F /  2.8 °C 35.9 °F /  2.2 °C 30.24in /  1023.9hPa Calm     95% 0.00in /  0mm 56 W/m2
08:19 37.4 °F /  3 °C 36.3 °F /  2.4 °C 30.24in /  1023.9hPa Calm     95.9% 0.00in /  0mm 67 W/m2
08:24 38.3 °F /  3.5 °C 37.1 °F /  2.8 °C 30.24in /  1023.9hPa Calm     95.2% 0.00in /  0mm 84 W/m2
08:29 38.3 °F /  3.5 °C 37.1 °F /  2.8 °C 30.24in /  1023.9hPa Calm   1mph /  1.6km/h 95.7% 0.00in /  0mm 86 W/m2
08:34 38.6 °F /  3.7 °C 37.5 °F /  3.1 °C 30.25in /  1024.3hPa Calm   1mph /  1.6km/h 95.5% 0.00in /  0mm 98 W/m2
08:39 38.9 °F /  3.8 °C 37.9 °F /  3.3 °C 30.25in /  1024.3hPa Calm     96% 0.00in /  0mm 97 W/m2
08:44 39.3 °F /  4.1 °C 38.2 °F /  3.4 °C 30.25in /  1024.3hPa Calm     96% 0.00in /  0mm 104 W/m2
08:49 39.7 °F /  4.3 °C 38.6 °F /  3.7 °C 30.26in /  1024.6hPa Calm     96% 0.00in /  0mm 128 W/m2
08:54 39.9 °F /  4.4 °C 38.8 °F /  3.8 °C 30.26in /  1024.6hPa Calm     96% 0.00in /  0mm 134 W/m2
08:59 40.8 °F /  4.9 °C 39.7 °F /  4.3 °C 30.26in /  1024.6hPa Calm     96% 0.00in /  0mm 162 W/m2
09:04 41.1 °F /  5.1 °C 40 °F /  4.4 °C 30.26in /  1024.6hPa Calm     96% 0.00in /  0mm 188 W/m2
09:09 40.6 °F /  4.8 °C 39.6 °F /  4.2 °C 30.26in /  1024.6hPa Calm     96% 0.00in /  0mm 188 W/m2
09:14 40.8 °F /  4.9 °C 39.7 °F /  4.3 °C 30.26in /  1024.6hPa Calm     96% 0.00in /  0mm 172 W/m2
09:19 41.3 °F /  5.2 °C 40.2 °F /  4.6 °C 30.26in /  1024.6hPa Calm   1mph /  1.6km/h 96% 0.00in /  0mm 174 W/m2
09:24 42.1 °F /  5.6 °C 41 °F /  5 °C 30.26in /  1024.6hPa WNW 0.3mph /  0.5km/h 2mph /  3.2km/h 96% 0.00in /  0mm 204 W/m2
09:29 42.4 °F /  5.8 °C 41.3 °F /  5.2 °C 30.27in /  1024.9hPa WNW 0.1mph /  0.2km/h 2mph /  3.2km/h 96% 0.00in /  0mm 243 W/m2
09:34 42.8 °F /  6 °C 41.7 °F /  5.4 °C 30.27in /  1024.9hPa WNW 0.1mph /  0.2km/h 1mph /  1.6km/h 95.9% 0.00in /  0mm 230 W/m2
09:39 43.1 °F /  6.2 °C 41.8 °F /  5.4 °C 30.27in /  1024.9hPa WNW 1.7mph /  2.7km/h 5mph /  8km/h 95% 0.00in /  0mm 207 W/m2
09:44 43.1 °F /  6.2 °C 41.9 °F /  5.5 °C 30.27in /  1024.9hPa WNW 2.6mph /  4.2km/h 5mph /  8km/h 95% 0.00in /  0mm 243 W/m2
09:49 43.7 °F /  6.5 °C 42.3 °F /  5.7 °C 30.27in /  1024.9hPa WNW 1.2mph /  1.9km/h 5mph /  8km/h 94.7% 0.00in /  0mm 262 W/m2
09:54 44.4 °F /  6.9 °C 42.7 °F /  5.9 °C 30.27in /  1024.9hPa WNW 1.7mph /  2.7km/h 4mph /  6.4km/h 94% 0.00in /  0mm 287 W/m2
09:59 44.8 °F /  7.1 °C 43 °F /  6.1 °C 30.27in /  1024.9hPa WNW 1.7mph /  2.7km/h 3mph /  4.8km/h 93.3% 0.00in /  0mm 295 W/m2
10:04 45.3 °F /  7.4 °C 43.1 °F /  6.2 °C 30.27in /  1024.9hPa WNW 0.6mph /  1km/h 3mph /  4.8km/h 92% 0.00in /  0mm 306 W/m2
10:09 46.5 °F /  8.1 °C 43.9 °F /  6.6 °C 30.27in /  1024.9hPa WNW 0.9mph /  1.4km/h 4mph /  6.4km/h 90.8% 0.00in /  0mm 316 W/m2
10:14 46.8 °F /  8.2 °C 43.8 °F /  6.6 °C 30.27in /  1024.9hPa WNW 0.7mph /  1.1km/h 4mph /  6.4km/h 89.3% 0.00in /  0mm 304 W/m2
10:19 46.7 °F /  8.2 °C 43.2 °F /  6.2 °C 30.27in /  1024.9hPa WNW 2.8mph /  4.5km/h 5mph /  8km/h 87.7% 0.00in /  0mm 285 W/m2
10:24 46.6 °F /  8.1 °C 42.7 °F /  5.9 °C 30.27in /  1024.9hPa WNW 3.5mph /  5.6km/h 5mph /  8km/h 86.4% 0.00in /  0mm 306 W/m2
10:29 46.3 °F /  7.9 °C 42.1 °F /  5.6 °C 30.27in /  1024.9hPa WNW 2.6mph /  4.2km/h 5mph /  8km/h 85.2% 0.00in /  0mm 325 W/m2
10:34 46.8 °F /  8.2 °C 42.7 °F /  5.9 °C 30.27in /  1024.9hPa WNW 2.2mph /  3.5km/h 5mph /  8km/h 85.5% 0.00in /  0mm 346 W/m2
10:39 47.5 °F /  8.6 °C 43.3 °F /  6.3 °C 30.27in /  1024.9hPa WNW 2.3mph /  3.7km/h 5mph /  8km/h 85.3% 0.00in /  0mm 359 W/m2
10:44 47.2 °F /  8.4 °C 42.8 °F /  6 °C 30.27in /  1024.9hPa WNW 4mph /  6.4km/h 7mph /  11.3km/h 84.3% 0.00in /  0mm 322 W/m2
10:49 47.4 °F /  8.6 °C 42.8 °F /  6 °C 30.27in /  1024.9hPa West 2mph /  3.2km/h 7mph /  11.3km/h 84% 0.00in /  0mm 364 W/m2
10:54 48 °F /  8.9 °C 43.3 °F /  6.3 °C 30.27in /  1024.9hPa WNW 3.1mph /  5km/h 7mph /  11.3km/h 83.8% 0.00in /  0mm 376 W/m2
10:59 47.8 °F /  8.8 °C 43 °F /  6.1 °C 30.27in /  1024.9hPa West 3.6mph /  5.8km/h 7mph /  11.3km/h 83% 0.00in /  0mm 387 W/m2
11:04 48.7 °F /  9.3 °C 43.8 °F /  6.6 °C 30.27in /  1024.9hPa West 2.3mph /  3.7km/h 6mph /  9.7km/h 83.3% 0.00in /  0mm 387 W/m2
11:09 48.9 °F /  9.4 °C 43.8 °F /  6.6 °C 30.27in /  1024.9hPa West 2.6mph /  4.2km/h 6mph /  9.7km/h 82.3% 0.00in /  0mm 397 W/m2
11:14 48.9 °F /  9.4 °C 43.3 °F /  6.3 °C 30.27in /  1024.9hPa NW 4.7mph /  7.6km/h 8mph /  12.9km/h 81% 0.00in /  0mm 396 W/m2
11:19 49.3 °F /  9.6 °C 43.6 °F /  6.4 °C 30.27in /  1024.9hPa NW 1.7mph /  2.7km/h 8mph /  12.9km/h 80.5% 0.00in /  0mm 390 W/m2
11:24 50 °F /  10 °C 43.8 °F /  6.6 °C 30.27in /  1024.9hPa WNW 4.1mph /  6.6km/h 8mph /  12.9km/h 79.3% 0.00in /  0mm 401 W/m2
11:29 49.9 °F /  9.9 °C 43.2 °F /  6.2 °C 30.27in /  1024.9hPa NW 2.2mph /  3.5km/h 6mph /  9.7km/h 78% 0.00in /  0mm 415 W/m2
11:34 50.2 °F /  10.1 °C 43.3 °F /  6.3 °C 30.27in /  1024.9hPa NNW 3.7mph /  6km/h 7mph /  11.3km/h 77.1% 0.00in /  0mm 418 W/m2
11:39 50.8 °F /  10.4 °C 43.4 °F /  6.3 °C 30.27in /  1024.9hPa NW 2.4mph /  3.9km/h 7mph /  11.3km/h 75.5% 0.00in /  0mm 413 W/m2
11:44 51.1 °F /  10.6 °C 43.7 °F /  6.5 °C 30.27in /  1024.9hPa WNW 0.8mph /  1.3km/h 6mph /  9.7km/h 76% 0.00in /  0mm 403 W/m2
11:49 51.6 °F /  10.9 °C 44.2 °F /  6.8 °C 30.27in /  1024.9hPa WNW 2mph /  3.2km/h 5mph /  8km/h 75.9% 0.00in /  0mm 427 W/m2
11:54 51.4 °F /  10.8 °C 43.1 °F /  6.2 °C 30.27in /  1024.9hPa WNW 4mph /  6.4km/h 8mph /  12.9km/h 73.2% 0.00in /  0mm 413 W/m2
11:59 51.2 °F /  10.7 °C 42.4 °F /  5.8 °C 30.26in /  1024.6hPa NW 2.9mph /  4.7km/h 8mph /  12.9km/h 71.6% 0.00in /  0mm 399 W/m2
12:04 51.4 °F /  10.8 °C 42.1 °F /  5.6 °C 30.26in /  1024.6hPa North 4.3mph /  6.9km/h 10mph /  16.1km/h 70.3% 0.00in /  0mm 425 W/m2
12:09 51.8 °F /  11 °C 42.3 °F /  5.7 °C 30.26in /  1024.6hPa NNW 0.6mph /  1km/h 6mph /  9.7km/h 70% 0.00in /  0mm 445 W/m2
12:14 52.2 °F /  11.2 °C 42.4 °F /  5.8 °C 30.26in /  1024.6hPa NNW 0.5mph /  0.8km/h 2mph /  3.2km/h 69.3% 0.00in /  0mm 445 W/m2
12:19 53.1 °F /  11.7 °C 43.1 °F /  6.2 °C 30.26in /  1024.6hPa North 2.4mph /  3.9km/h 6mph /  9.7km/h 68.7% 0.00in /  0mm 448 W/m2
12:24 52.9 °F /  11.6 °C 42.1 °F /  5.6 °C 30.25in /  1024.3hPa NNE 2.4mph /  3.9km/h 6mph /  9.7km/h 66.3% 0.00in /  0mm 446 W/m2
12:29 52.2 °F /  11.2 °C 41.5 °F /  5.3 °C 30.25in /  1024.3hPa NNE 2.1mph /  3.4km/h 7mph /  11.3km/h 66.7% 0.00in /  0mm 396 W/m2
12:34 53.1 °F /  11.7 °C 42.6 °F /  5.9 °C 30.25in /  1024.3hPa North 1.3mph /  2.1km/h 7mph /  11.3km/h 67.4% 0.00in /  0mm 367 W/m2
12:39 53.1 °F /  11.7 °C 42.5 °F /  5.8 °C 30.25in /  1024.3hPa NNW 2.7mph /  4.3km/h 6mph /  9.7km/h 67.3% 0.00in /  0mm 315 W/m2
12:44 52.3 °F /  11.3 °C 42.8 °F /  6 °C 30.25in /  1024.3hPa North 3.9mph /  6.3km/h 9mph /  14.5km/h 70% 0.00in /  0mm 346 W/m2
12:49 52.2 °F /  11.2 °C 42.7 °F /  5.9 °C 30.26in /  1024.6hPa North 2mph /  3.2km/h 7mph /  11.3km/h 70.4% 0.00in /  0mm 381 W/m2
12:54 52.6 °F /  11.4 °C 43.2 °F /  6.2 °C 30.26in /  1024.6hPa North 2.2mph /  3.5km/h 6mph /  9.7km/h 70.3% 0.00in /  0mm 403 W/m2
12:59 52.8 °F /  11.6 °C 42.8 °F /  6 °C 30.26in /  1024.6hPa North 3.2mph /  5.1km/h 7mph /  11.3km/h 68.6% 0.00in /  0mm 403 W/m2
13:04 52.6 °F /  11.4 °C 42.7 °F /  5.9 °C 30.26in /  1024.6hPa North 2.9mph /  4.7km/h 9mph /  14.5km/h 69% 0.00in /  0mm 417 W/m2
13:09 53.1 °F /  11.7 °C 43.2 °F /  6.2 °C 30.26in /  1024.6hPa North 2.3mph /  3.7km/h 8mph /  12.9km/h 69% 0.00in /  0mm 417 W/m2
13:14 52.9 °F /  11.6 °C 42.7 °F /  5.9 °C 30.25in /  1024.3hPa North 1.6mph /  2.6km/h 6mph /  9.7km/h 68.2% 0.00in /  0mm 418 W/m2
13:19 53.3 °F /  11.8 °C 43.2 °F /  6.2 °C 30.25in /  1024.3hPa North 3.1mph /  5km/h 7mph /  11.3km/h 68.1% 0.00in /  0mm 418 W/m2
13:24 53.2 °F /  11.8 °C 43.5 °F /  6.4 °C 30.25in /  1024.3hPa NNW 2.6mph /  4.2km/h 7mph /  11.3km/h 69.4% 0.00in /  0mm 388 W/m2
13:29 54.7 °F /  12.6 °C 44.3 °F /  6.8 °C 30.26in /  1024.6hPa NNW 1.7mph /  2.7km/h 6mph /  9.7km/h 67.7% 0.00in /  0mm 390 W/m2
13:34 53.8 °F /  12.1 °C 42.9 °F /  6.1 °C 30.26in /  1024.6hPa North 3.3mph /  5.3km/h 8mph /  12.9km/h 66.5% 0.00in /  0mm 390 W/m2
13:39 53.6 °F /  12 °C 43.6 °F /  6.4 °C 30.26in /  1024.6hPa NNE 2.6mph /  4.2km/h 8mph /  12.9km/h 68.7% 0.00in /  0mm 378 W/m2
13:44 54.4 °F /  12.4 °C 44.2 °F /  6.8 °C 30.26in /  1024.6hPa NNE 0.9mph /  1.4km/h 5mph /  8km/h 68.1% 0.00in /  0mm 380 W/m2
13:49 53.5 °F /  11.9 °C 42.6 °F /  5.9 °C 30.26in /  1024.6hPa NNW 3.1mph /  5km/h 6mph /  9.7km/h 66.5% 0.00in /  0mm 366 W/m2
13:54 52.8 °F /  11.6 °C 42.5 °F /  5.8 °C 30.26in /  1024.6hPa NW 3.8mph /  6.1km/h 7mph /  11.3km/h 68% 0.00in /  0mm 322 W/m2
13:59 52.9 °F /  11.6 °C 43.1 °F /  6.2 °C 30.26in /  1024.6hPa WNW 1.7mph /  2.7km/h 5mph /  8km/h 69% 0.00in /  0mm 338 W/m2
14:04 54 °F /  12.2 °C 43.8 °F /  6.6 °C 30.26in /  1024.6hPa WNW 1.9mph /  3.1km/h 4mph /  6.4km/h 68.3% 0.00in /  0mm 353 W/m2
14:09 53.9 °F /  12.2 °C 43.6 °F /  6.4 °C 30.26in /  1024.6hPa NW 2.3mph /  3.7km/h 5mph /  8km/h 68.1% 0.00in /  0mm 350 W/m2
14:14 53.6 °F /  12 °C 43.4 °F /  6.3 °C 30.26in /  1024.6hPa North 5.3mph /  8.5km/h 9mph /  14.5km/h 68% 0.00in /  0mm 322 W/m2
14:19 53.1 °F /  11.7 °C 42.7 °F /  5.9 °C 30.26in /  1024.6hPa North 3.9mph /  6.3km/h 9mph /  14.5km/h 67.7% 0.00in /  0mm 288 W/m2
14:24 52.9 °F /  11.6 °C 42.5 °F /  5.8 °C 30.26in /  1024.6hPa North 2.7mph /  4.3km/h 7mph /  11.3km/h 67.8% 0.00in /  0mm 297 W/m2
14:29 53.1 °F /  11.7 °C 42.8 °F /  6 °C 30.26in /  1024.6hPa North 1.8mph /  2.9km/h 4mph /  6.4km/h 68% 0.00in /  0mm 292 W/m2
14:34 53.1 °F /  11.7 °C 42.9 °F /  6.1 °C 30.26in /  1024.6hPa North 0.6mph /  1km/h 6mph /  9.7km/h 68% 0.00in /  0mm 236 W/m2
14:39 53.5 °F /  11.9 °C 43.5 °F /  6.4 °C 30.26in /  1024.6hPa North 1.6mph /  2.6km/h 5mph /  8km/h 68.8% 0.00in /  0mm 255 W/m2
14:44 53.2 °F /  11.8 °C 42.6 °F /  5.9 °C 30.26in /  1024.6hPa North 2.2mph /  3.5km/h 5mph /  8km/h 67.1% 0.00in /  0mm 171 W/m2
14:49 52.9 °F /  11.6 °C 42.5 °F /  5.8 °C 30.26in /  1024.6hPa North 3.3mph /  5.3km/h 7mph /  11.3km/h 67.8% 0.00in /  0mm 179 W/m2
14:54 52.5 °F /  11.4 °C 42.4 °F /  5.8 °C 30.26in /  1024.6hPa North 2.8mph /  4.5km/h 6mph /  9.7km/h 68.4% 0.00in /  0mm 179 W/m2
14:59 52.5 °F /  11.4 °C 42.5 °F /  5.8 °C 30.26in /  1024.6hPa North 1.5mph /  2.4km/h 4mph /  6.4km/h 68.6% 0.00in /  0mm 156 W/m2
15:04 52.3 °F /  11.3 °C 42.6 °F /  5.9 °C 30.26in /  1024.6hPa North 2.3mph /  3.7km/h 5mph /  8km/h 69.4% 0.00in /  0mm 160 W/m2
15:09 52.2 °F /  11.2 °C 42.5 °F /  5.8 °C 30.26in /  1024.6hPa North 2.7mph /  4.3km/h 6mph /  9.7km/h 69.5% 0.00in /  0mm 137 W/m2
15:14 52.1 °F /  11.2 °C 42.3 °F /  5.7 °C 30.26in /  1024.6hPa North 1mph /  1.6km/h 6mph /  9.7km/h 69.4% 0.00in /  0mm 109 W/m2
15:19 52.1 °F /  11.2 °C 42.5 °F /  5.8 °C 30.26in /  1024.6hPa North 1.6mph /  2.6km/h 4mph /  6.4km/h 70% 0.00in /  0mm 118 W/m2
15:24 52.1 °F /  11.2 °C 42.5 °F /  5.8 °C 30.26in /  1024.6hPa North 0.4mph /  0.6km/h 3mph /  4.8km/h 70.2% 0.00in /  0mm 116 W/m2
15:29 52.2 °F /  11.2 °C 43 °F /  6.1 °C 30.26in /  1024.6hPa Calm     71% 0.00in /  0mm 120 W/m2
15:34 52.3 °F /  11.3 °C 43.1 °F /  6.2 °C 30.27in /  1024.9hPa Calm     71% 0.00in /  0mm 107 W/m2
15:39 52.3 °F /  11.3 °C 43.2 °F /  6.2 °C 30.27in /  1024.9hPa Calm     71% 0.00in /  0mm 86 W/m2
15:44 52.3 °F /  11.3 °C 43.2 °F /  6.2 °C 30.27in /  1024.9hPa Calm     71% 0.00in /  0mm 84 W/m2
15:49 52.1 °F /  11.2 °C 42.9 °F /  6.1 °C 30.27in /  1024.9hPa Calm     71% 0.00in /  0mm 79 W/m2
15:54 51.8 °F /  11 °C 43.1 °F /  6.2 °C 30.27in /  1024.9hPa Calm     72% 0.00in /  0mm 67 W/m2
15:59 51.5 °F /  10.8 °C 42.9 °F /  6.1 °C 30.27in /  1024.9hPa Calm     72% 0.00in /  0mm 60 W/m2
16:04 51.3 °F /  10.7 °C 42.7 °F /  5.9 °C 30.27in /  1024.9hPa Calm     72% 0.00in /  0mm 51 W/m2
16:09 51.3 °F /  10.7 °C 42.9 °F /  6.1 °C 30.27in /  1024.9hPa Calm     72.6% 0.00in /  0mm 44 W/m2
16:14 51.4 °F /  10.8 °C 43.4 °F /  6.3 °C 30.27in /  1024.9hPa Calm     73.6% 0.00in /  0mm 40 W/m2
16:19 51.3 °F /  10.7 °C 43.3 °F /  6.3 °C 30.27in /  1024.9hPa Calm     74% 0.00in /  0mm 35 W/m2
16:24 50.6 °F /  10.3 °C 42.7 °F /  5.9 °C 30.27in /  1024.9hPa Calm     74% 0.00in /  0mm 30 W/m2
16:29 50.2 °F /  10.1 °C 42.6 °F /  5.9 °C 30.27in /  1024.9hPa Calm     75% 0.00in /  0mm 25 W/m2
16:34 49.9 °F /  9.9 °C 42.3 °F /  5.7 °C 30.27in /  1024.9hPa Calm     75% 0.00in /  0mm 21 W/m2
16:39 49.6 °F /  9.8 °C 42.1 °F /  5.6 °C 30.27in /  1024.9hPa Calm     75.2% 0.00in /  0mm 18 W/m2
16:44 49.2 °F /  9.6 °C 41.9 °F /  5.5 °C 30.27in /  1024.9hPa Calm     76% 0.00in /  0mm 12 W/m2
16:49 48.6 °F /  9.2 °C 41.5 °F /  5.3 °C 30.27in /  1024.9hPa Calm     76.1% 0.00in /  0mm 9 W/m2
16:54 48 °F /  8.9 °C 41.1 °F /  5.1 °C 30.28in /  1025.3hPa Calm     77% 0.00in /  0mm 5 W/m2
16:59 47.4 °F /  8.6 °C 40.9 °F /  4.9 °C 30.28in /  1025.3hPa Calm     78.1% 0.00in /  0mm 0 W/m2
17:04 46.9 °F /  8.3 °C 41 °F /  5 °C 30.28in /  1025.3hPa Calm     79.5% 0.00in /  0mm 0 W/m2
17:09 46.8 °F /  8.2 °C 41.1 °F /  5.1 °C 30.28in /  1025.3hPa Calm     80.7% 0.00in /  0mm 0 W/m2
17:14 46.8 °F /  8.2 °C 41.5 °F /  5.3 °C 30.28in /  1025.3hPa Calm     81.8% 0.00in /  0mm 0 W/m2
17:19 46.1 °F /  7.8 °C 40.9 °F /  4.9 °C 30.28in /  1025.3hPa Calm     82% 0.00in /  0mm 0 W/m2
17:24 45.7 °F /  7.6 °C 40.7 °F /  4.8 °C 30.28in /  1025.3hPa Calm     82.7% 0.00in /  0mm 0 W/m2
17:29 45.6 °F /  7.6 °C 41 °F /  5 °C 30.28in /  1025.3hPa Calm     83.7% 0.00in /  0mm 0 W/m2
17:34 45.3 °F /  7.4 °C 40.8 °F /  4.9 °C 30.28in /  1025.3hPa Calm     84% 0.00in /  0mm 0 W/m2
17:39 45 °F /  7.2 °C 40.6 °F /  4.8 °C 30.29in /  1025.6hPa Calm     84.4% 0.00in /  0mm 0 W/m2
17:44 44.8 °F /  7.1 °C 40.5 °F /  4.7 °C 30.29in /  1025.6hPa Calm     85% 0.00in /  0mm 0 W/m2
17:49 44.4 °F /  6.9 °C 40.3 °F /  4.6 °C 30.29in /  1025.6hPa Calm     85% 0.00in /  0mm 0 W/m2
17:54 44 °F /  6.7 °C 39.9 °F /  4.4 °C 30.29in /  1025.6hPa Calm     85.5% 0.00in /  0mm 0 W/m2
17:59 43.7 °F /  6.5 °C 39.8 °F /  4.3 °C 30.29in /  1025.6hPa Calm     86% 0.00in /  0mm 0 W/m2
18:04 43.5 °F /  6.4 °C 39.7 °F /  4.3 °C 30.29in /  1025.6hPa Calm     86.2% 0.00in /  0mm 0 W/m2
18:09 43.3 °F /  6.3 °C 39.7 °F /  4.3 °C 30.29in /  1025.6hPa Calm     87% 0.00in /  0mm 0 W/m2
18:14 43.1 °F /  6.2 °C 39.5 °F /  4.2 °C 30.29in /  1025.6hPa Calm     87% 0.00in /  0mm 0 W/m2
18:19 43 °F /  6.1 °C 39.4 °F /  4.1 °C 30.29in /  1025.6hPa Calm     87% 0.00in /  0mm 0 W/m2
18:24 42.8 °F /  6 °C 39.3 °F /  4.1 °C 30.29in /  1025.6hPa Calm     87.3% 0.00in /  0mm 0 W/m2
18:29 42.5 °F /  5.8 °C 39.3 °F /  4.1 °C 30.29in /  1025.6hPa Calm     88% 0.00in /  0mm 0 W/m2
18:34 42.3 °F /  5.7 °C 39.1 °F /  3.9 °C 30.29in /  1025.6hPa Calm     88% 0.00in /  0mm 0 W/m2
18:39 42.3 °F /  5.7 °C 39 °F /  3.9 °C 30.29in /  1025.6hPa Calm     88% 0.00in /  0mm 0 W/m2
18:44 42.2 °F /  5.7 °C 38.9 °F /  3.8 °C 30.29in /  1025.6hPa Calm     88% 0.00in /  0mm 0 W/m2
18:49 42 °F /  5.6 °C 38.8 °F /  3.8 °C 30.29in /  1025.6hPa Calm     88.3% 0.00in /  0mm 0 W/m2
18:54 41.8 °F /  5.4 °C 38.7 °F /  3.7 °C 30.29in /  1025.6hPa Calm     89% 0.00in /  0mm 0 W/m2
18:59 41.4 °F /  5.2 °C 38.4 °F /  3.6 °C 30.29in /  1025.6hPa Calm     89% 0.00in /  0mm 0 W/m2
19:04 41.3 °F /  5.2 °C 38.2 °F /  3.4 °C 30.29in /  1025.6hPa Calm     89% 0.00in /  0mm 0 W/m2
19:09 41.2 °F /  5.1 °C 38.1 °F /  3.4 °C 30.29in /  1025.6hPa Calm     89% 0.00in /  0mm 0 W/m2
19:14 41.1 °F /  5.1 °C 38 °F /  3.3 °C 30.29in /  1025.6hPa Calm     89% 0.00in /  0mm 0 W/m2
19:19 40.9 °F /  4.9 °C 37.9 °F /  3.3 °C 30.29in /  1025.6hPa Calm     89% 0.00in /  0mm 0 W/m2
19:24 40.8 °F /  4.9 °C 38 °F /  3.3 °C 30.29in /  1025.6hPa Calm     89.7% 0.00in /  0mm 0 W/m2
19:29 40.8 °F /  4.9 °C 38.1 °F /  3.4 °C 30.29in /  1025.6hPa Calm     90% 0.00in /  0mm 0 W/m2
19:34 40.6 °F /  4.8 °C 37.9 °F /  3.3 °C 30.28in /  1025.3hPa Calm     90% 0.00in /  0mm 0 W/m2
19:39 40.5 °F /  4.7 °C 37.8 °F /  3.2 °C 30.29in /  1025.6hPa Calm     90% 0.00in /  0mm 0 W/m2
19:44 40.5 °F /  4.7 °C 37.8 °F /  3.2 °C 30.29in /  1025.6hPa Calm     90% 0.00in /  0mm 0 W/m2
19:49 40.2 °F /  4.6 °C 37.5 °F /  3.1 °C 30.29in /  1025.6hPa Calm     90% 0.00in /  0mm 0 W/m2
19:54 39.8 °F /  4.3 °C 37.1 °F /  2.8 °C 30.29in /  1025.6hPa Calm   1mph /  1.6km/h 90% 0.00in /  0mm 0 W/m2
19:59 39.7 °F /  4.3 °C 37 °F /  2.8 °C 30.29in /  1025.6hPa Calm     90% 0.00in /  0mm 0 W/m2
20:04 39.7 °F /  4.3 °C 37.3 °F /  2.9 °C 30.29in /  1025.6hPa Calm     90.6% 0.00in /  0mm 0 W/m2
20:09 39.7 °F /  4.3 °C 37.4 °F /  3 °C 30.29in /  1025.6hPa Calm     91% 0.00in /  0mm 0 W/m2
20:14 39.7 °F /  4.3 °C 37.4 °F /  3 °C 30.29in /  1025.6hPa Calm     91% 0.00in /  0mm 0 W/m2
20:19 39.7 °F /  4.3 °C 37.3 °F /  2.9 °C 30.29in /  1025.6hPa Calm     91% 0.00in /  0mm 0 W/m2
20:24 39.4 °F /  4.1 °C 37 °F /  2.8 °C 30.29in /  1025.6hPa Calm     91% 0.00in /  0mm 0 W/m2
20:29 39.2 °F /  4 °C 36.9 °F /  2.7 °C 30.29in /  1025.6hPa Calm     91% 0.00in /  0mm 0 W/m2
20:34 39.2 °F /  4 °C 36.9 °F /  2.7 °C 30.29in /  1025.6hPa Calm   1mph /  1.6km/h 91% 0.00in /  0mm 0 W/m2
20:39 39.1 °F /  3.9 °C 36.8 °F /  2.7 °C 30.29in /  1025.6hPa North 0.3mph /  0.5km/h 1mph /  1.6km/h 91% 0.00in /  0mm 0 W/m2
20:44 38.9 °F /  3.8 °C 36.6 °F /  2.6 °C 30.29in /  1025.6hPa Calm   1mph /  1.6km/h 91% 0.00in /  0mm 0 W/m2
20:49 38.8 °F /  3.8 °C 36.5 °F /  2.5 °C 30.29in /  1025.6hPa Calm   1mph /  1.6km/h 91% 0.00in /  0mm 0 W/m2
20:54 38.6 °F /  3.7 °C 36.2 °F /  2.3 °C 30.29in /  1025.6hPa Calm   1mph /  1.6km/h 91% 0.00in /  0mm 0 W/m2
20:59 38.5 °F /  3.6 °C 36.1 °F /  2.3 °C 30.30in /  1026hPa Calm     91% 0.00in /  0mm 0 W/m2
21:04 38.5 °F /  3.6 °C 36.1 °F /  2.3 °C 30.30in /  1026hPa Calm     91% 0.00in /  0mm 0 W/m2
21:09 38.4 °F /  3.6 °C 36.1 °F /  2.3 °C 30.30in /  1026hPa Calm     91.3% 0.00in /  0mm 0 W/m2
21:14 38.3 °F /  3.5 °C 36.1 °F /  2.3 °C 30.30in /  1026hPa Calm     92% 0.00in /  0mm 0 W/m2
21:19 38.2 °F /  3.4 °C 36 °F /  2.2 °C 30.31in /  1026.3hPa Calm     92% 0.00in /  0mm 0 W/m2
21:24 38.1 °F /  3.4 °C 36 °F /  2.2 °C 30.31in /  1026.3hPa Calm     92% 0.00in /  0mm 0 W/m2
21:29 38.1 °F /  3.4 °C 36 °F /  2.2 °C 30.32in /  1026.6hPa Calm     92% 0.00in /  0mm 0 W/m2
21:34 38.1 °F /  3.4 °C 36 °F /  2.2 °C 30.31in /  1026.3hPa Calm     92% 0.00in /  0mm 0 W/m2
21:39 37.9 °F /  3.3 °C 35.8 °F /  2.1 °C 30.32in /  1026.6hPa Calm     92% 0.00in /  0mm 0 W/m2
21:44 37.9 °F /  3.3 °C 35.8 °F /  2.1 °C 30.32in /  1026.6hPa Calm     92% 0.00in /  0mm 0 W/m2
21:49 37.9 °F /  3.3 °C 35.8 °F /  2.1 °C 30.32in /  1026.6hPa Calm     92% 0.00in /  0mm 0 W/m2
21:54 37.9 °F /  3.3 °C 35.8 °F /  2.1 °C 30.31in /  1026.3hPa Calm     92% 0.00in /  0mm 0 W/m2
21:59 37.8 °F /  3.2 °C 35.6 °F /  2 °C 30.31in /  1026.3hPa Calm     92% 0.00in /  0mm 0 W/m2
22:04 37.6 °F /  3.1 °C 35.4 °F /  1.9 °C 30.31in /  1026.3hPa Calm     92% 0.00in /  0mm 0 W/m2
22:09 37.8 °F /  3.2 °C 35.6 °F /  2 °C 30.31in /  1026.3hPa Calm     92% 0.00in /  0mm 0 W/m2
22:14 37.7 °F /  3.2 °C 35.5 °F /  1.9 °C 30.31in /  1026.3hPa Calm     92% 0.00in /  0mm 0 W/m2
22:19 37.6 °F /  3.1 °C 35.4 °F /  1.9 °C 30.31in /  1026.3hPa Calm   1mph /  1.6km/h 92% 0.00in /  0mm 0 W/m2
22:24 37.6 °F /  3.1 °C 35.4 °F /  1.9 °C 30.31in /  1026.3hPa Calm   1mph /  1.6km/h 92% 0.00in /  0mm 0 W/m2
22:29 37.5 °F /  3.1 °C 35.3 °F /  1.8 °C 30.31in /  1026.3hPa Calm     92% 0.00in /  0mm 0 W/m2
22:34 37.4 °F /  3 °C 35.2 °F /  1.8 °C 30.31in /  1026.3hPa Calm     92% 0.00in /  0mm 0 W/m2
22:39 37.2 °F /  2.9 °C 35.1 °F /  1.7 °C 30.31in /  1026.3hPa Calm   1mph /  1.6km/h 92% 0.00in /  0mm 0 W/m2
22:44 37.2 °F /  2.9 °C 35.1 °F /  1.7 °C 30.31in /  1026.3hPa Calm   1mph /  1.6km/h 92% 0.00in /  0mm 0 W/m2
22:49 37.2 °F /  2.9 °C 35.1 °F /  1.7 °C 30.31in /  1026.3hPa Calm   1mph /  1.6km/h 92% 0.00in /  0mm 0 W/m2
22:54 37.2 °F /  2.9 °C 35.1 °F /  1.7 °C 30.31in /  1026.3hPa Calm   1mph /  1.6km/h 92% 0.00in /  0mm 0 W/m2
22:59 37 °F /  2.8 °C 35 °F /  1.7 °C 30.31in /  1026.3hPa Calm     92.3% 0.00in /  0mm 0 W/m2
23:04 37 °F /  2.8 °C 34.9 °F /  1.6 °C 30.31in /  1026.3hPa Calm     92% 0.00in /  0mm 0 W/m2
23:09 37 °F /  2.8 °C 34.9 °F /  1.6 °C 30.31in /  1026.3hPa Calm     92% 0.00in /  0mm 0 W/m2
23:14 36.9 °F /  2.7 °C 34.7 °F /  1.5 °C 30.31in /  1026.3hPa Calm   1mph /  1.6km/h 92% 0.00in /  0mm 0 W/m2
23:19 36.8 °F /  2.7 °C 34.9 °F /  1.6 °C 30.31in /  1026.3hPa Calm     92.7% 0.00in /  0mm 0 W/m2
23:24 36.7 °F /  2.6 °C 34.9 °F /  1.6 °C 30.31in /  1026.3hPa Calm     93% 0.00in /  0mm 0 W/m2
23:29 36.6 °F /  2.6 °C 34.8 °F /  1.6 °C 30.31in /  1026.3hPa Calm     93% 0.00in /  0mm 0 W/m2
23:34 36.4 °F /  2.4 °C 34.6 °F /  1.4 °C 30.31in /  1026.3hPa Calm     93% 0.00in /  0mm 0 W/m2
23:39 36.3 °F /  2.4 °C 34.5 °F /  1.4 °C 30.31in /  1026.3hPa Calm     93% 0.00in /  0mm 0 W/m2
23:44 36.2 °F /  2.3 °C 34.4 °F /  1.3 °C 30.31in /  1026.3hPa Calm     93% 0.00in /  0mm 0 W/m2
23:49 36.1 °F /  2.3 °C 34.3 °F /  1.3 °C 30.30in /  1026hPa Calm   1mph /  1.6km/h 93% 0.00in /  0mm 0 W/m2
23:54 36.1 °F /  2.3 °C 34.3 °F /  1.3 °C 30.30in /  1026hPa Calm     93% 0.00in /  0mm 0 W/m2
23:59 36.1 °F /  2.3 °C 34.3 °F /  1.3 °C 30.30in /  1026hPa Calm     93% 0.00in /  0mm 0 W/m2
Bath Spa Weather
Compliments of Weather Underground - 2 mb